sensor_id;sensor_type;location;lat;lon;timestamp;temperature;humidity
66506;HTU21D;53332;51.082;5.832;2023-09-19T00:00:01;17.50;111.38
66506;HTU21D;53332;51.082;5.832;2023-09-19T00:02:26;17.51;111.45
66506;HTU21D;53332;51.082;5.832;2023-09-19T00:04:52;17.50;111.52
66506;HTU21D;53332;51.082;5.832;2023-09-19T00:07:19;17.52;111.23
66506;HTU21D;53332;51.082;5.832;2023-09-19T00:09:44;17.48;111.41
66506;HTU21D;53332;51.082;5.832;2023-09-19T00:12:10;17.44;111.68
66506;HTU21D;53332;51.082;5.832;2023-09-19T00:14:35;17.44;112.03
66506;HTU21D;53332;51.082;5.832;2023-09-19T00:17:02;17.40;112.44
66506;HTU21D;53332;51.082;5.832;2023-09-19T00:19:34;17.39;112.55
66506;HTU21D;53332;51.082;5.832;2023-09-19T00:22:00;17.37;112.83
66506;HTU21D;53332;51.082;5.832;2023-09-19T00:24:26;17.34;113.13
66506;HTU21D;53332;51.082;5.832;2023-09-19T00:26:54;17.33;113.09
66506;HTU21D;53332;51.082;5.832;2023-09-19T00:29:21;17.33;113.26
66506;HTU21D;53332;51.082;5.832;2023-09-19T00:31:46;17.33;113.29
66506;HTU21D;53332;51.082;5.832;2023-09-19T00:34:12;17.32;113.36
66506;HTU21D;53332;51.082;5.832;2023-09-19T00:36:37;17.31;113.48
66506;HTU21D;53332;51.082;5.832;2023-09-19T00:39:06;17.30;113.64
66506;HTU21D;53332;51.082;5.832;2023-09-19T00:41:35;17.29;113.60
66506;HTU21D;53332;51.082;5.832;2023-09-19T00:44:04;17.29;113.71
66506;HTU21D;53332;51.082;5.832;2023-09-19T00:46:32;17.26;113.87
66506;HTU21D;53332;51.082;5.832;2023-09-19T00:48:58;17.26;114.14
66506;HTU21D;53332;51.082;5.832;2023-09-19T00:51:25;17.29;114.09
66506;HTU21D;53332;51.082;5.832;2023-09-19T00:53:53;17.30;113.87
66506;HTU21D;53332;51.082;5.832;2023-09-19T00:56:19;17.30;113.85
66506;HTU21D;53332;51.082;5.832;2023-09-19T00:58:46;17.29;113.97
66506;HTU21D;53332;51.082;5.832;2023-09-19T01:01:13;17.25;114.09
66506;HTU21D;53332;51.082;5.832;2023-09-19T01:03:44;17.23;114.24
66506;HTU21D;53332;51.082;5.832;2023-09-19T01:06:10;17.25;114.19
66506;HTU21D;53332;51.082;5.832;2023-09-19T01:08:36;17.25;114.32
66506;HTU21D;53332;51.082;5.832;2023-09-19T01:11:38;17.24;114.41
66506;HTU21D;53332;51.082;5.832;2023-09-19T01:22:56;17.18;114.00
66506;HTU21D;53332;51.082;5.832;2023-09-19T01:28:20;17.16;113.91
66506;HTU21D;53332;51.082;5.832;2023-09-19T01:30:53;17.13;113.52
66506;HTU21D;53332;51.082;5.832;2023-09-19T01:33:23;17.13;112.94
66506;HTU21D;53332;51.082;5.832;2023-09-19T01:35:49;17.15;112.43
66506;HTU21D;53332;51.082;5.832;2023-09-19T01:38:15;17.14;112.22
66506;HTU21D;53332;51.082;5.832;2023-09-19T01:40:44;17.15;112.29
66506;HTU21D;53332;51.082;5.832;2023-09-19T01:43:22;17.16;112.44
66506;HTU21D;53332;51.082;5.832;2023-09-19T01:52:04;17.08;112.96
66506;HTU21D;53332;51.082;5.832;2023-09-19T01:54:36;17.07;112.92
66506;HTU21D;53332;51.082;5.832;2023-09-19T01:57:22;17.07;113.18
66506;HTU21D;53332;51.082;5.832;2023-09-19T02:00:13;17.01;113.49
66506;HTU21D;53332;51.082;5.832;2023-09-19T02:02:44;16.98;113.52
66506;HTU21D;53332;51.082;5.832;2023-09-19T02:05:10;16.98;113.31
66506;HTU21D;53332;51.082;5.832;2023-09-19T02:07:38;16.99;112.87
66506;HTU21D;53332;51.082;5.832;2023-09-19T02:10:05;16.98;113.04
66506;HTU21D;53332;51.082;5.832;2023-09-19T02:12:31;16.98;113.04
66506;HTU21D;53332;51.082;5.832;2023-09-19T02:14:58;16.99;113.04
66506;HTU21D;53332;51.082;5.832;2023-09-19T02:17:25;16.95;113.19
66506;HTU21D;53332;51.082;5.832;2023-09-19T02:19:55;16.92;113.41
66506;HTU21D;53332;51.082;5.832;2023-09-19T02:22:21;16.91;113.71
66506;HTU21D;53332;51.082;5.832;2023-09-19T02:24:48;16.92;114.05
66506;HTU21D;53332;51.082;5.832;2023-09-19T02:27:14;16.93;114.26
66506;HTU21D;53332;51.082;5.832;2023-09-19T02:29:41;16.94;114.55
66506;HTU21D;53332;51.082;5.832;2023-09-19T02:32:07;16.94;114.78
66506;HTU21D;53332;51.082;5.832;2023-09-19T02:34:32;16.95;114.84
66506;HTU21D;53332;51.082;5.832;2023-09-19T02:37:04;16.93;114.83
66506;HTU21D;53332;51.082;5.832;2023-09-19T02:39:31;16.94;114.79
66506;HTU21D;53332;51.082;5.832;2023-09-19T02:41:56;16.95;114.75
66506;HTU21D;53332;51.082;5.832;2023-09-19T02:44:24;16.94;114.54
66506;HTU21D;53332;51.082;5.832;2023-09-19T02:46:50;16.92;114.68
66506;HTU21D;53332;51.082;5.832;2023-09-19T02:49:16;16.93;114.64
66506;HTU21D;53332;51.082;5.832;2023-09-19T02:51:43;16.91;114.60
66506;HTU21D;53332;51.082;5.832;2023-09-19T02:54:08;16.91;114.59
66506;HTU21D;53332;51.082;5.832;2023-09-19T02:56:34;16.89;114.61
66506;HTU21D;53332;51.082;5.832;2023-09-19T02:59:00;16.89;114.41
66506;HTU21D;53332;51.082;5.832;2023-09-19T03:01:26;16.85;114.50
66506;HTU21D;53332;51.082;5.832;2023-09-19T03:03:53;16.87;114.54
66506;HTU21D;53332;51.082;5.832;2023-09-19T03:06:19;16.88;114.33
66506;HTU21D;53332;51.082;5.832;2023-09-19T03:08:46;16.87;114.29
66506;HTU21D;53332;51.082;5.832;2023-09-19T03:11:12;16.88;114.30
66506;HTU21D;53332;51.082;5.832;2023-09-19T03:13:40;16.88;114.23
66506;HTU21D;53332;51.082;5.832;2023-09-19T03:16:08;16.82;114.38
66506;HTU21D;53332;51.082;5.832;2023-09-19T03:18:36;16.80;114.34
66506;HTU21D;53332;51.082;5.832;2023-09-19T03:21:02;16.81;114.17
66506;HTU21D;53332;51.082;5.832;2023-09-19T03:23:28;16.81;114.16
66506;HTU21D;53332;51.082;5.832;2023-09-19T03:25:55;16.80;114.06
66506;HTU21D;53332;51.082;5.832;2023-09-19T03:28:22;16.80;114.05
66506;HTU21D;53332;51.082;5.832;2023-09-19T03:31:05;16.80;114.01
66506;HTU21D;53332;51.082;5.832;2023-09-19T03:33:31;16.79;113.91
66506;HTU21D;53332;51.082;5.832;2023-09-19T03:35:58;16.78;114.01
66506;HTU21D;53332;51.082;5.832;2023-09-19T03:38:25;16.78;113.96
66506;HTU21D;53332;51.082;5.832;2023-09-19T03:40:51;16.74;113.92
66506;HTU21D;53332;51.082;5.832;2023-09-19T03:43:16;16.69;114.13
66506;HTU21D;53332;51.082;5.832;2023-09-19T03:45:42;16.69;114.35
66506;HTU21D;53332;51.082;5.832;2023-09-19T03:48:10;16.69;114.34
66506;HTU21D;53332;51.082;5.832;2023-09-19T03:50:36;16.70;114.30
66506;HTU21D;53332;51.082;5.832;2023-09-19T03:53:02;16.69;114.36
66506;HTU21D;53332;51.082;5.832;2023-09-19T03:55:28;16.64;114.50
66506;HTU21D;53332;51.082;5.832;2023-09-19T03:57:53;16.63;114.46
66506;HTU21D;53332;51.082;5.832;2023-09-19T04:00:19;16.61;114.70
66506;HTU21D;53332;51.082;5.832;2023-09-19T04:02:48;16.57;114.76
66506;HTU21D;53332;51.082;5.832;2023-09-19T04:05:13;16.58;114.86
66506;HTU21D;53332;51.082;5.832;2023-09-19T04:07:39;16.60;114.45
66506;HTU21D;53332;51.082;5.832;2023-09-19T04:10:05;16.56;114.70
66506;HTU21D;53332;51.082;5.832;2023-09-19T04:12:31;16.56;114.71
66506;HTU21D;53332;51.082;5.832;2023-09-19T04:14:57;16.57;114.56
66506;HTU21D;53332;51.082;5.832;2023-09-19T04:17:23;16.54;114.31
66506;HTU21D;53332;51.082;5.832;2023-09-19T04:19:48;16.48;114.11
66506;HTU21D;53332;51.082;5.832;2023-09-19T04:22:14;16.51;114.07
66506;HTU21D;53332;51.082;5.832;2023-09-19T04:24:39;16.51;113.80
66506;HTU21D;53332;51.082;5.832;2023-09-19T04:27:05;16.50;113.41
66506;HTU21D;53332;51.082;5.832;2023-09-19T04:29:31;16.50;112.97
66506;HTU21D;53332;51.082;5.832;2023-09-19T04:31:57;16.50;112.47
66506;HTU21D;53332;51.082;5.832;2023-09-19T04:34:22;16.49;112.02
66506;HTU21D;53332;51.082;5.832;2023-09-19T04:36:49;16.51;111.68
66506;HTU21D;53332;51.082;5.832;2023-09-19T04:39:15;16.52;111.18
66506;HTU21D;53332;51.082;5.832;2023-09-19T04:41:40;16.56;110.62
66506;HTU21D;53332;51.082;5.832;2023-09-19T04:44:07;16.57;110.29
66506;HTU21D;53332;51.082;5.832;2023-09-19T04:46:35;16.59;109.84
66506;HTU21D;53332;51.082;5.832;2023-09-19T04:49:00;16.52;109.74
66506;HTU21D;53332;51.082;5.832;2023-09-19T04:51:26;16.51;109.40
66506;HTU21D;53332;51.082;5.832;2023-09-19T04:53:54;16.47;109.30
66506;HTU21D;53332;51.082;5.832;2023-09-19T04:56:20;16.51;109.16
66506;HTU21D;53332;51.082;5.832;2023-09-19T04:58:46;16.54;108.92
66506;HTU21D;53332;51.082;5.832;2023-09-19T05:01:11;16.49;108.88
66506;HTU21D;53332;51.082;5.832;2023-09-19T05:03:40;16.52;108.75
66506;HTU21D;53332;51.082;5.832;2023-09-19T05:06:05;16.54;108.72
66506;HTU21D;53332;51.082;5.832;2023-09-19T05:08:31;16.58;108.81
66506;HTU21D;53332;51.082;5.832;2023-09-19T05:10:56;16.58;108.85
66506;HTU21D;53332;51.082;5.832;2023-09-19T05:13:22;16.60;108.94
66506;HTU21D;53332;51.082;5.832;2023-09-19T05:15:49;16.63;109.05
66506;HTU21D;53332;51.082;5.832;2023-09-19T05:18:18;16.64;109.26
66506;HTU21D;53332;51.082;5.832;2023-09-19T05:20:43;16.64;109.54
66506;HTU21D;53332;51.082;5.832;2023-09-19T05:23:09;16.63;109.88
66506;HTU21D;53332;51.082;5.832;2023-09-19T05:25:37;16.65;109.96
66506;HTU21D;53332;51.082;5.832;2023-09-19T05:28:05;16.65;110.22
66506;HTU21D;53332;51.082;5.832;2023-09-19T05:30:35;16.62;110.37
66506;HTU21D;53332;51.082;5.832;2023-09-19T05:33:08;16.61;110.72
66506;HTU21D;53332;51.082;5.832;2023-09-19T05:35:34;16.59;111.16
66506;HTU21D;53332;51.082;5.832;2023-09-19T05:38:03;16.59;111.40
66506;HTU21D;53332;51.082;5.832;2023-09-19T05:40:30;16.58;111.76
66506;HTU21D;53332;51.082;5.832;2023-09-19T05:42:56;16.60;111.84
66506;HTU21D;53332;51.082;5.832;2023-09-19T05:45:21;16.62;111.82
66506;HTU21D;53332;51.082;5.832;2023-09-19T05:47:52;16.63;111.95
66506;HTU21D;53332;51.082;5.832;2023-09-19T05:50:21;16.63;112.13
66506;HTU21D;53332;51.082;5.832;2023-09-19T05:52:54;16.65;112.30
66506;HTU21D;53332;51.082;5.832;2023-09-19T05:55:21;16.67;112.25
66506;HTU21D;53332;51.082;5.832;2023-09-19T05:57:53;16.66;112.19
66506;HTU21D;53332;51.082;5.832;2023-09-19T06:00:19;16.64;112.39
66506;HTU21D;53332;51.082;5.832;2023-09-19T06:02:50;16.62;112.56
66506;HTU21D;53332;51.082;5.832;2023-09-19T06:05:15;16.56;113.13
66506;HTU21D;53332;51.082;5.832;2023-09-19T06:07:41;16.52;113.31
66506;HTU21D;53332;51.082;5.832;2023-09-19T06:10:07;16.51;113.36
66506;HTU21D;53332;51.082;5.832;2023-09-19T06:12:38;16.50;113.75
66506;HTU21D;53332;51.082;5.832;2023-09-19T06:15:05;16.51;113.86
66506;HTU21D;53332;51.082;5.832;2023-09-19T06:17:31;16.55;114.06
66506;HTU21D;53332;51.082;5.832;2023-09-19T06:19:56;16.56;114.19
66506;HTU21D;53332;51.082;5.832;2023-09-19T06:22:22;16.56;114.12
66506;HTU21D;53332;51.082;5.832;2023-09-19T06:24:49;16.57;114.24
66506;HTU21D;53332;51.082;5.832;2023-09-19T06:27:15;16.59;114.25
66506;HTU21D;53332;51.082;5.832;2023-09-19T06:29:41;16.62;114.21
66506;HTU21D;53332;51.082;5.832;2023-09-19T06:32:10;16.63;114.21
66506;HTU21D;53332;51.082;5.832;2023-09-19T06:34:36;16.64;113.94
66506;HTU21D;53332;51.082;5.832;2023-09-19T06:37:04;16.69;113.83
66506;HTU21D;53332;51.082;5.832;2023-09-19T06:39:31;16.73;113.76
66506;HTU21D;53332;51.082;5.832;2023-09-19T06:41:57;16.74;113.74
66506;HTU21D;53332;51.082;5.832;2023-09-19T06:44:23;16.72;113.77
66506;HTU21D;53332;51.082;5.832;2023-09-19T06:46:50;16.72;113.71
66506;HTU21D;53332;51.082;5.832;2023-09-19T06:49:17;16.76;114.02
66506;HTU21D;53332;51.082;5.832;2023-09-19T06:51:43;16.80;113.77
66506;HTU21D;53332;51.082;5.832;2023-09-19T06:54:09;16.85;113.47
66506;HTU21D;53332;51.082;5.832;2023-09-19T06:56:35;16.89;113.42
66506;HTU21D;53332;51.082;5.832;2023-09-19T06:59:00;16.91;113.42
66506;HTU21D;53332;51.082;5.832;2023-09-19T07:01:28;16.95;112.79
66506;HTU21D;53332;51.082;5.832;2023-09-19T07:03:53;17.02;112.43
66506;HTU21D;53332;51.082;5.832;2023-09-19T07:06:20;17.07;112.19
66506;HTU21D;53332;51.082;5.832;2023-09-19T07:08:45;17.16;111.85
66506;HTU21D;53332;51.082;5.832;2023-09-19T07:11:11;17.24;111.25
66506;HTU21D;53332;51.082;5.832;2023-09-19T07:13:37;17.36;110.58
66506;HTU21D;53332;51.082;5.832;2023-09-19T07:16:03;17.44;109.64
66506;HTU21D;53332;51.082;5.832;2023-09-19T07:18:29;17.53;109.25
66506;HTU21D;53332;51.082;5.832;2023-09-19T07:20:58;17.55;108.49
66506;HTU21D;53332;51.082;5.832;2023-09-19T07:23:30;17.59;108.17
66506;HTU21D;53332;51.082;5.832;2023-09-19T07:26:01;17.64;107.49
66506;HTU21D;53332;51.082;5.832;2023-09-19T07:28:26;17.69;107.49
66506;HTU21D;53332;51.082;5.832;2023-09-19T07:30:53;17.77;107.17
66506;HTU21D;53332;51.082;5.832;2023-09-19T07:33:19;17.78;106.68
66506;HTU21D;53332;51.082;5.832;2023-09-19T07:35:46;17.81;106.43
66506;HTU21D;53332;51.082;5.832;2023-09-19T07:38:11;17.89;105.83
66506;HTU21D;53332;51.082;5.832;2023-09-19T07:40:37;17.92;105.59
66506;HTU21D;53332;51.082;5.832;2023-09-19T07:43:02;17.99;105.46
66506;HTU21D;53332;51.082;5.832;2023-09-19T07:45:32;17.99;105.18
66506;HTU21D;53332;51.082;5.832;2023-09-19T07:47:59;18.02;104.64
66506;HTU21D;53332;51.082;5.832;2023-09-19T07:50:29;18.04;104.47
66506;HTU21D;53332;51.082;5.832;2023-09-19T07:52:55;18.13;103.92
66506;HTU21D;53332;51.082;5.832;2023-09-19T07:55:22;18.18;103.32
66506;HTU21D;53332;51.082;5.832;2023-09-19T07:57:54;18.17;102.79
66506;HTU21D;53332;51.082;5.832;2023-09-19T08:00:20;18.23;102.55
66506;HTU21D;53332;51.082;5.832;2023-09-19T08:02:45;18.25;102.20
66506;HTU21D;53332;51.082;5.832;2023-09-19T08:05:12;18.22;101.76
66506;HTU21D;53332;51.082;5.832;2023-09-19T08:07:41;18.29;101.58
66506;HTU21D;53332;51.082;5.832;2023-09-19T08:10:08;18.34;101.35
66506;HTU21D;53332;51.082;5.832;2023-09-19T08:12:39;18.40;101.15
66506;HTU21D;53332;51.082;5.832;2023-09-19T08:15:20;18.49;101.27
66506;HTU21D;53332;51.082;5.832;2023-09-19T08:17:46;18.61;101.06
66506;HTU21D;53332;51.082;5.832;2023-09-19T08:20:12;18.72;100.60
66506;HTU21D;53332;51.082;5.832;2023-09-19T08:22:47;18.81;99.24
66506;HTU21D;53332;51.082;5.832;2023-09-19T08:25:14;18.84;98.87
66506;HTU21D;53332;51.082;5.832;2023-09-19T08:27:43;18.88;98.13
66506;HTU21D;53332;51.082;5.832;2023-09-19T08:30:16;18.92;98.09
66506;HTU21D;53332;51.082;5.832;2023-09-19T08:32:43;18.95;97.61
66506;HTU21D;53332;51.082;5.832;2023-09-19T08:35:10;18.94;97.10
66506;HTU21D;53332;51.082;5.832;2023-09-19T08:37:36;18.91;96.71
66506;HTU21D;53332;51.082;5.832;2023-09-19T08:40:01;18.89;96.61
66506;HTU21D;53332;51.082;5.832;2023-09-19T08:42:27;18.86;96.45
66506;HTU21D;53332;51.082;5.832;2023-09-19T08:44:53;18.87;96.47
66506;HTU21D;53332;51.082;5.832;2023-09-19T08:47:34;18.94;96.41
66506;HTU21D;53332;51.082;5.832;2023-09-19T08:50:28;18.94;96.29
66506;HTU21D;53332;51.082;5.832;2023-09-19T08:52:56;18.97;95.56
66506;HTU21D;53332;51.082;5.832;2023-09-19T08:55:27;19.11;96.11
66506;HTU21D;53332;51.082;5.832;2023-09-19T08:58:03;19.28;94.90
66506;HTU21D;53332;51.082;5.832;2023-09-19T09:00:30;19.29;94.15
66506;HTU21D;53332;51.082;5.832;2023-09-19T09:02:57;19.36;92.89
66506;HTU21D;53332;51.082;5.832;2023-09-19T09:05:24;19.42;92.62
66506;HTU21D;53332;51.082;5.832;2023-09-19T09:07:50;19.47;92.51
66506;HTU21D;53332;51.082;5.832;2023-09-19T09:10:22;19.47;91.79
66506;HTU21D;53332;51.082;5.832;2023-09-19T09:12:52;19.44;92.13
66506;HTU21D;53332;51.082;5.832;2023-09-19T09:15:22;19.41;87.58
66506;HTU21D;53332;51.082;5.832;2023-09-19T09:17:49;19.42;90.79
66506;HTU21D;53332;51.082;5.832;2023-09-19T09:20:19;19.48;90.94
66506;HTU21D;53332;51.082;5.832;2023-09-19T09:22:56;19.51;90.36
66506;HTU21D;53332;51.082;5.832;2023-09-19T09:25:52;19.46;89.70
66506;HTU21D;53332;51.082;5.832;2023-09-19T09:28:26;19.40;89.93
66506;HTU21D;53332;51.082;5.832;2023-09-19T09:30:54;19.44;89.44
66506;HTU21D;53332;51.082;5.832;2023-09-19T09:33:20;19.58;88.98
66506;HTU21D;53332;51.082;5.832;2023-09-19T09:35:54;19.69;89.22
66506;HTU21D;53332;51.082;5.832;2023-09-19T09:38:29;19.84;88.86
66506;HTU21D;53332;51.082;5.832;2023-09-19T09:40:58;20.00;87.79
66506;HTU21D;53332;51.082;5.832;2023-09-19T09:43:29;20.03;86.59
66506;HTU21D;53332;51.082;5.832;2023-09-19T09:46:10;20.03;86.07
66506;HTU21D;53332;51.082;5.832;2023-09-19T09:51:41;19.94;85.25
66506;HTU21D;53332;51.082;5.832;2023-09-19T09:54:17;19.90;84.56
66506;HTU21D;53332;51.082;5.832;2023-09-19T09:56:56;19.86;84.45
66506;HTU21D;53332;51.082;5.832;2023-09-19T10:02:17;19.82;84.03
66506;HTU21D;53332;51.082;5.832;2023-09-19T10:04:56;19.95;84.54
66506;HTU21D;53332;51.082;5.832;2023-09-19T10:07:49;20.04;83.54
66506;HTU21D;53332;51.082;5.832;2023-09-19T10:10:34;20.07;82.36
66506;HTU21D;53332;51.082;5.832;2023-09-19T10:13:08;20.05;81.74
66506;HTU21D;53332;51.082;5.832;2023-09-19T10:15:38;20.03;82.38
66506;HTU21D;53332;51.082;5.832;2023-09-19T10:18:10;19.99;82.90
66506;HTU21D;53332;51.082;5.832;2023-09-19T10:20:40;19.98;82.62
66506;HTU21D;53332;51.082;5.832;2023-09-19T10:23:10;19.98;82.00
66506;HTU21D;53332;51.082;5.832;2023-09-19T10:25:43;20.02;81.82
66506;HTU21D;53332;51.082;5.832;2023-09-19T10:28:12;20.15;81.55
66506;HTU21D;53332;51.082;5.832;2023-09-19T10:30:44;20.19;81.56
66506;HTU21D;53332;51.082;5.832;2023-09-19T10:33:15;20.16;80.61
66506;HTU21D;53332;51.082;5.832;2023-09-19T10:35:44;20.24;79.53
66506;HTU21D;53332;51.082;5.832;2023-09-19T10:38:11;20.43;78.61
66506;HTU21D;53332;51.082;5.832;2023-09-19T10:40:38;20.58;78.11
66506;HTU21D;53332;51.082;5.832;2023-09-19T10:43:22;20.84;76.53
66506;HTU21D;53332;51.082;5.832;2023-09-19T10:45:50;20.89;75.44
66506;HTU21D;53332;51.082;5.832;2023-09-19T10:48:19;21.00;75.38
66506;HTU21D;53332;51.082;5.832;2023-09-19T10:53:28;21.40;72.56
66506;HTU21D;53332;51.082;5.832;2023-09-19T10:55:59;21.57;71.24
66506;HTU21D;53332;51.082;5.832;2023-09-19T10:58:30;21.92;68.67
66506;HTU21D;53332;51.082;5.832;2023-09-19T11:01:00;22.26;66.83
66506;HTU21D;53332;51.082;5.832;2023-09-19T11:03:35;22.54;65.78
66506;HTU21D;53332;51.082;5.832;2023-09-19T11:06:05;22.69;64.71
66506;HTU21D;53332;51.082;5.832;2023-09-19T11:08:56;22.71;64.44
66506;HTU21D;53332;51.082;5.832;2023-09-19T11:11:41;22.92;62.84
66506;HTU21D;53332;51.082;5.832;2023-09-19T11:30:33;24.17;57.80
66506;HTU21D;53332;51.082;5.832;2023-09-19T11:33:34;24.33;56.00
66506;HTU21D;53332;51.082;5.832;2023-09-19T11:36:08;24.48;54.62
66506;HTU21D;53332;51.082;5.832;2023-09-19T11:46:53;24.60;53.43
66506;HTU21D;53332;51.082;5.832;2023-09-19T11:49:25;24.48;53.60
66506;HTU21D;53332;51.082;5.832;2023-09-19T11:51:51;24.29;54.76
66506;HTU21D;53332;51.082;5.832;2023-09-19T11:54:17;24.44;54.33
66506;HTU21D;53332;51.082;5.832;2023-09-19T11:56:45;24.69;50.52
66506;HTU21D;53332;51.082;5.832;2023-09-19T11:59:11;24.47;53.68
66506;HTU21D;53332;51.082;5.832;2023-09-19T12:01:51;24.39;54.47
66506;HTU21D;53332;51.082;5.832;2023-09-19T12:04:40;24.32;54.26
66506;HTU21D;53332;51.082;5.832;2023-09-19T12:07:12;24.34;54.22
66506;HTU21D;53332;51.082;5.832;2023-09-19T12:09:42;24.23;53.67
66506;HTU21D;53332;51.082;5.832;2023-09-19T12:12:10;23.89;55.12
66506;HTU21D;53332;51.082;5.832;2023-09-19T12:14:38;23.55;56.99
66506;HTU21D;53332;51.082;5.832;2023-09-19T12:17:05;23.47;57.63
66506;HTU21D;53332;51.082;5.832;2023-09-19T12:19:30;23.51;57.53
66506;HTU21D;53332;51.082;5.832;2023-09-19T12:22:03;23.14;58.75
66506;HTU21D;53332;51.082;5.832;2023-09-19T12:24:32;22.99;59.83
66506;HTU21D;53332;51.082;5.832;2023-09-19T12:27:03;23.01;59.90
66506;HTU21D;53332;51.082;5.832;2023-09-19T12:29:30;22.88;60.15
66506;HTU21D;53332;51.082;5.832;2023-09-19T12:31:58;22.90;60.53
66506;HTU21D;53332;51.082;5.832;2023-09-19T12:34:31;22.92;60.85
66506;HTU21D;53332;51.082;5.832;2023-09-19T12:37:07;22.91;61.87
66506;HTU21D;53332;51.082;5.832;2023-09-19T12:39:41;22.99;61.94
66506;HTU21D;53332;51.082;5.832;2023-09-19T12:42:12;23.08;61.97
66506;HTU21D;53332;51.082;5.832;2023-09-19T12:44:42;22.90;61.93
66506;HTU21D;53332;51.082;5.832;2023-09-19T12:47:16;22.66;62.99
66506;HTU21D;53332;51.082;5.832;2023-09-19T12:50:04;22.49;64.68
66506;HTU21D;53332;51.082;5.832;2023-09-19T12:52:48;22.40;65.15
66506;HTU21D;53332;51.082;5.832;2023-09-19T12:55:26;22.20;66.19
66506;HTU21D;53332;51.082;5.832;2023-09-19T12:58:15;22.01;67.27
66506;HTU21D;53332;51.082;5.832;2023-09-19T13:00:43;21.89;68.22
66506;HTU21D;53332;51.082;5.832;2023-09-19T13:03:26;21.78;69.52
66506;HTU21D;53332;51.082;5.832;2023-09-19T13:05:52;21.67;69.39
66506;HTU21D;53332;51.082;5.832;2023-09-19T13:08:21;21.58;70.08
66506;HTU21D;53332;51.082;5.832;2023-09-19T13:11:14;21.44;70.16
66506;HTU21D;53332;51.082;5.832;2023-09-19T13:16:26;21.52;70.80
66506;HTU21D;53332;51.082;5.832;2023-09-19T13:18:55;21.50;71.24
66506;HTU21D;53332;51.082;5.832;2023-09-19T13:21:32;21.48;71.03
66506;HTU21D;53332;51.082;5.832;2023-09-19T13:24:24;21.42;71.61
66506;HTU21D;53332;51.082;5.832;2023-09-19T13:26:55;21.35;72.02
66506;HTU21D;53332;51.082;5.832;2023-09-19T13:29:20;21.34;72.45
66506;HTU21D;53332;51.082;5.832;2023-09-19T13:31:47;21.24;72.51
66506;HTU21D;53332;51.082;5.832;2023-09-19T13:34:13;21.08;72.08
66506;HTU21D;53332;51.082;5.832;2023-09-19T13:36:41;21.11;72.38
66506;HTU21D;53332;51.082;5.832;2023-09-19T13:39:07;21.16;72.11
66506;HTU21D;53332;51.082;5.832;2023-09-19T13:41:35;21.20;71.66
66506;HTU21D;53332;51.082;5.832;2023-09-19T13:44:02;21.22;72.44
66506;HTU21D;53332;51.082;5.832;2023-09-19T13:46:28;21.25;72.32
66506;HTU21D;53332;51.082;5.832;2023-09-19T13:48:53;21.19;72.38
66506;HTU21D;53332;51.082;5.832;2023-09-19T13:51:20;21.15;72.48
66506;HTU21D;53332;51.082;5.832;2023-09-19T13:53:48;21.18;73.06
66506;HTU21D;53332;51.082;5.832;2023-09-19T13:56:14;21.20;73.62
66506;HTU21D;53332;51.082;5.832;2023-09-19T13:58:39;21.22;73.01
66506;HTU21D;53332;51.082;5.832;2023-09-19T14:01:07;21.15;73.24
66506;HTU21D;53332;51.082;5.832;2023-09-19T14:03:38;21.06;73.08
66506;HTU21D;53332;51.082;5.832;2023-09-19T14:06:04;21.08;72.71
66506;HTU21D;53332;51.082;5.832;2023-09-19T14:08:29;21.01;73.21
66506;HTU21D;53332;51.082;5.832;2023-09-19T14:10:55;21.04;73.17
66506;HTU21D;53332;51.082;5.832;2023-09-19T14:13:20;21.09;72.90
66506;HTU21D;53332;51.082;5.832;2023-09-19T14:15:46;21.10;73.38
66506;HTU21D;53332;51.082;5.832;2023-09-19T14:18:12;21.07;73.59
66506;HTU21D;53332;51.082;5.832;2023-09-19T14:20:38;21.03;73.59
66506;HTU21D;53332;51.082;5.832;2023-09-19T14:23:07;20.98;73.79
66506;HTU21D;53332;51.082;5.832;2023-09-19T14:25:36;20.94;74.02
66506;HTU21D;53332;51.082;5.832;2023-09-19T14:28:02;20.93;74.30
66506;HTU21D;53332;51.082;5.832;2023-09-19T14:30:28;20.94;74.51
66506;HTU21D;53332;51.082;5.832;2023-09-19T14:32:53;20.94;74.62
66506;HTU21D;53332;51.082;5.832;2023-09-19T14:35:19;20.91;74.89
66506;HTU21D;53332;51.082;5.832;2023-09-19T14:37:44;20.90;74.94
66506;HTU21D;53332;51.082;5.832;2023-09-19T14:40:11;20.88;75.23
66506;HTU21D;53332;51.082;5.832;2023-09-19T14:42:39;20.88;75.69
66506;HTU21D;53332;51.082;5.832;2023-09-19T14:45:05;20.89;75.92
66506;HTU21D;53332;51.082;5.832;2023-09-19T14:47:32;20.84;75.32
66506;HTU21D;53332;51.082;5.832;2023-09-19T14:50:03;20.85;75.44
66506;HTU21D;53332;51.082;5.832;2023-09-19T14:52:32;20.84;75.52
66506;HTU21D;53332;51.082;5.832;2023-09-19T14:54:57;20.83;75.51
66506;HTU21D;53332;51.082;5.832;2023-09-19T14:57:23;20.81;75.77
66506;HTU21D;53332;51.082;5.832;2023-09-19T14:59:50;20.85;76.06
66506;HTU21D;53332;51.082;5.832;2023-09-19T15:02:16;20.84;76.09
66506;HTU21D;53332;51.082;5.832;2023-09-19T15:04:42;20.85;75.88
66506;HTU21D;53332;51.082;5.832;2023-09-19T15:07:12;20.83;75.99
66506;HTU21D;53332;51.082;5.832;2023-09-19T15:09:37;20.86;76.10
66506;HTU21D;53332;51.082;5.832;2023-09-19T15:12:03;20.91;76.32
66506;HTU21D;53332;51.082;5.832;2023-09-19T15:14:29;20.96;76.64
66506;HTU21D;53332;51.082;5.832;2023-09-19T15:16:57;21.04;76.08
66506;HTU21D;53332;51.082;5.832;2023-09-19T15:19:22;21.14;76.23
66506;HTU21D;53332;51.082;5.832;2023-09-19T15:21:48;21.22;75.99
66506;HTU21D;53332;51.082;5.832;2023-09-19T15:24:13;21.29;75.67
66506;HTU21D;53332;51.082;5.832;2023-09-19T15:26:40;21.29;75.73
66506;HTU21D;53332;51.082;5.832;2023-09-19T15:29:09;21.28;75.44
66506;HTU21D;53332;51.082;5.832;2023-09-19T15:31:35;21.31;75.58
66506;HTU21D;53332;51.082;5.832;2023-09-19T15:34:02;21.28;75.30
66506;HTU21D;53332;51.082;5.832;2023-09-19T15:36:27;21.28;75.25
66506;HTU21D;53332;51.082;5.832;2023-09-19T15:41:26;21.20;75.17
66506;HTU21D;53332;51.082;5.832;2023-09-19T15:43:52;21.20;75.03
66506;HTU21D;53332;51.082;5.832;2023-09-19T15:46:19;21.18;74.83
66506;HTU21D;53332;51.082;5.832;2023-09-19T15:48:45;21.20;74.67
66506;HTU21D;53332;51.082;5.832;2023-09-19T15:51:11;21.24;74.48
66506;HTU21D;53332;51.082;5.832;2023-09-19T15:53:46;21.23;74.37
66506;HTU21D;53332;51.082;5.832;2023-09-19T15:56:12;21.20;74.84
66506;HTU21D;53332;51.082;5.832;2023-09-19T15:58:39;21.17;74.64
66506;HTU21D;53332;51.082;5.832;2023-09-19T16:01:07;21.14;74.64
66506;HTU21D;53332;51.082;5.832;2023-09-19T16:03:39;21.15;74.92
66506;HTU21D;53332;51.082;5.832;2023-09-19T16:06:09;21.22;74.78
66506;HTU21D;53332;51.082;5.832;2023-09-19T16:08:42;21.28;74.92
66506;HTU21D;53332;51.082;5.832;2023-09-19T16:11:09;21.31;74.69
66506;HTU21D;53332;51.082;5.832;2023-09-19T16:13:40;21.32;74.77